< < Back
Terminal Aerodrome Forecast


Current Version              Previous Versions:   1  2  3  4  5  6  7  8  9  

Terminal Aerodrome Forecast

106
FTUS42 KCHS 261720
TAFSAV
TAF
KSAV 261720Z 2618/2718 32006KT P6SM BKN015
     FM262100 34005KT P6SM SCT025 BKN250=

Latest METAR

376
SAUS80 KWBC 270600
MTRSAV
METAR KSAV 270553Z AUTO 07004KT 10SM OVC033 06/03 A3017 RMK AO2 SLP216
T00610033 10083 20061 51009 TSNO


USA.gov is the U.S. government's official web portal to all federal, state and local government web resources and services.